SALMON FALLS @ MILTON: From 11/03/2018 15:00 to 11/17/2018 21:00

Date STAGE [FT] FLOW [CFS] LAKE ELEVATION [FT] PRECIPITATION INCREMENT [IN] AIR TEMPERATURE [DEGF]
11/17/2018 15:00 4.18 -- 412.34 0.00 43.2
11/17/2018 14:00 4.19 557.8 412.36 0.00 43.3
11/17/2018 13:00 4.19 557.8 412.38 0.00 44.7
11/17/2018 12:00 4.20 564.0 412.40 0.00 44.2
11/17/2018 11:00 4.22 576.4 412.41 0.00 41.8
11/17/2018 10:00 4.20 564.0 412.44 0.00 36.8
11/17/2018 09:00 4.20 564.0 412.46 0.00 32.9
11/17/2018 08:00 4.21 570.2 412.50 0.00 31.5
11/17/2018 07:00 4.19 557.8 412.52 0.00 29.6
11/17/2018 06:00 4.22 576.4 412.54 0.00 28.2
11/17/2018 05:00 4.19 557.8 412.56 0.00 29.5
11/17/2018 04:00 4.24 589.1 412.60 0.00 29.5
11/17/2018 03:00 4.24 589.1 412.60 0.00 28.2
11/17/2018 02:00 4.22 576.4 412.64 0.00 26.9
11/17/2018 01:00 4.22 576.4 412.65 0.00 27.2
11/17/2018 00:00 4.23 582.7 412.69 0.00 27.0
11/16/2018 23:00 4.23 582.7 412.72 0.00 29.1
11/16/2018 22:00 4.23 582.7 412.74 0.00 30.8
11/16/2018 21:00 4.24 589.1 412.77 0.00 31.2
11/16/2018 20:00 4.22 576.4 412.77 0.00 32.0
11/16/2018 19:00 4.23 582.7 412.82 0.00 32.2
11/16/2018 18:00 4.27 608.3 412.84 0.00 31.8
11/16/2018 17:00 4.27 608.3 412.85 0.00 32.3
11/16/2018 16:00 4.25 595.4 412.90 0.00 31.6
11/16/2018 15:00 4.26 601.9 412.92 0.00 30.6
11/16/2018 14:00 4.28 614.8 412.94 0.00 29.6
11/16/2018 13:00 4.30 628.0 413.00 0.00 29.1
11/16/2018 12:00 4.24 589.1 413.02 0.00 26.9
11/16/2018 11:00 4.15 533.4 413.12 0.00 26.8
11/16/2018 10:00 4.15 533.4 413.11 0.00 26.5
11/16/2018 09:00 4.16 539.5 413.13 0.00 26.1
11/16/2018 08:00 4.16 539.5 413.11 0.00 27.2
11/16/2018 07:00 4.14 527.5 413.13 0.00 27.3
11/16/2018 06:00 4.18 551.6 413.14 0.00 26.9
11/16/2018 05:00 4.17 545.5 413.12 0.00 26.9
11/16/2018 04:00 4.18 551.6 413.13 0.00 26.9
11/16/2018 03:00 4.17 545.5 413.15 0.00 25.7
11/16/2018 02:00 4.17 545.5 413.15 0.00 25.7
11/16/2018 01:00 4.17 545.5 413.14 0.00 25.5
11/16/2018 00:00 4.18 551.6 413.16 0.00 26.0
11/15/2018 23:00 4.17 545.5 413.15 0.00 27.1
11/15/2018 22:00 4.18 551.6 413.16 0.00 26.6
11/15/2018 21:00 4.17 545.5 413.17 0.00 26.9
11/15/2018 20:00 4.19 557.8 413.19 0.00 26.6
11/15/2018 19:00 4.20 564.0 413.20 0.00 26.8
11/15/2018 18:00 4.20 564.0 413.22 0.00 26.9
11/15/2018 17:00 4.20 564.0 413.19 0.00 27.7
11/15/2018 16:00 4.21 570.2 413.23 0.00 27.7
11/15/2018 15:00 4.20 564.0 413.22 0.00 28.5
11/15/2018 14:00 4.20 564.0 413.22 0.00 27.9
11/15/2018 13:00 4.21 570.2 413.24 0.00 27.8
11/15/2018 12:00 4.24 589.1 413.26 0.00 26.3
11/15/2018 11:00 4.23 582.7 413.26 0.00 23.5
11/15/2018 10:00 4.24 589.1 413.26 0.00 21.9
11/15/2018 09:00 4.23 582.7 413.29 0.00 18.4
11/15/2018 08:00 4.24 589.1 413.28 0.00 15.6
11/15/2018 07:00 4.24 589.1 413.31 0.00 16.8
11/15/2018 06:00 4.26 601.9 413.30 0.00 17.0
11/15/2018 05:00 4.25 595.4 413.32 0.00 16.1
11/15/2018 04:00 4.25 595.4 413.31 0.00 17.0
11/15/2018 03:00 4.27 608.3 413.32 0.00 18.8
11/15/2018 02:00 4.29 621.4 413.32 0.00 17.5
11/15/2018 01:00 4.27 608.3 413.35 0.00 18.4
11/15/2018 00:00 4.27 608.3 413.32 0.00 19.8
11/14/2018 23:00 4.27 608.3 413.32 0.00 18.4
11/14/2018 22:00 4.29 621.4 413.34 0.00 19.2
11/14/2018 21:00 4.27 608.3 413.34 0.00 19.0
11/14/2018 20:00 4.26 601.9 413.35 0.00 20.0
11/14/2018 19:00 4.28 614.8 413.33 0.00 20.8
11/14/2018 18:00 4.27 608.3 413.37 0.00 21.5
11/14/2018 17:00 4.29 621.4 413.37 0.00 24.0
11/14/2018 16:00 4.26 601.9 413.33 0.00 26.3
11/14/2018 15:00 4.26 601.9 413.32 0.00 26.6
11/14/2018 14:00 4.30 628.0 413.29 0.00 27.4
11/14/2018 13:00 4.30 628.0 413.34 0.00 26.6
11/14/2018 12:00 4.29 621.4 413.29 0.00 27.3
11/14/2018 11:00 4.28 614.8 413.32 0.00 27.5
11/14/2018 10:00 4.27 608.3 413.31 0.00 25.4
11/14/2018 09:00 4.26 601.9 413.24 0.00 24.1
11/14/2018 08:00 4.25 595.4 413.23 0.00 24.4
11/14/2018 07:00 4.24 589.1 413.24 0.00 24.2
11/14/2018 06:00 4.23 582.7 413.20 0.00 24.3
11/14/2018 05:00 4.20 564.0 413.19 0.00 25.8
11/14/2018 04:00 4.23 582.7 413.19 0.00 26.6
11/14/2018 03:00 4.23 582.7 413.15 0.00 28.2
11/14/2018 02:00 4.21 570.2 413.17 0.00 30.2
11/14/2018 01:00 4.18 551.6 413.09 0.00 32.5
11/14/2018 00:00 4.15 533.4 413.08 0.00 35.0
11/13/2018 23:00 4.18 551.6 413.06 0.00 38.3
11/13/2018 22:00 4.13 521.5 413.05 0.00 38.6
11/13/2018 21:00 4.12 515.6 413.03 0.00 38.9
11/13/2018 20:00 4.13 521.5 413.02 0.00 39.0
11/13/2018 19:00 4.11 509.8 413.00 0.00 39.8
11/13/2018 18:00 4.10 504.0 412.97 0.00 41.0
11/13/2018 17:00 4.10 504.0 412.95 0.00 39.5
11/13/2018 16:00 4.09 498.2 412.93 0.00 38.8
11/13/2018 15:00 4.09 498.2 412.93 0.01 37.5
11/13/2018 14:00 4.09 498.2 412.92 0.03 37.2
11/13/2018 13:00 4.04 469.9 412.89 0.05 37.4
11/13/2018 12:00 4.04 469.9 412.87 0.06 39.3
11/13/2018 11:00 4.06 481.1 412.83 0.08 43.0
11/13/2018 10:00 4.05 475.5 412.81 0.08 41.4
11/13/2018 09:00 4.05 475.5 412.81 0.07 39.1
11/13/2018 08:00 4.05 475.5 412.80 0.08 37.8
11/13/2018 07:00 4.03 464.3 412.79 0.07 35.4
11/13/2018 06:00 4.04 469.9 412.79 0.05 34.5
11/13/2018 05:00 4.03 464.3 412.78 0.06 34.1
11/13/2018 04:00 4.05 475.5 412.80 0.04 33.9
11/13/2018 03:00 4.04 469.9 412.79 0.00 34.3
11/13/2018 02:00 4.04 469.9 412.80 0.00 34.1
11/13/2018 01:00 4.05 475.5 412.82 0.00 33.8
11/13/2018 00:00 4.04 469.9 412.82 0.00 33.4
11/12/2018 23:00 4.04 469.9 412.83 0.00 32.8
11/12/2018 22:00 4.06 481.1 412.84 0.00 32.4
11/12/2018 21:00 4.06 481.1 412.82 0.00 31.9
11/12/2018 20:00 4.06 481.1 412.85 0.00 32.4
11/12/2018 19:00 4.05 475.5 412.84 0.00 33.7
11/12/2018 18:00 4.07 486.7 412.87 0.00 36.0
11/12/2018 17:00 4.06 481.1 412.85 0.00 40.3
11/12/2018 16:00 4.06 481.1 412.88 0.00 45.2
11/12/2018 15:00 4.05 475.5 412.88 0.00 44.3
11/12/2018 14:00 4.05 475.5 412.89 0.00 43.7
11/12/2018 13:00 4.06 481.1 412.90 0.00 42.2
11/12/2018 12:00 4.07 486.7 412.92 0.00 40.1
11/12/2018 11:00 4.10 504.0 412.91 0.00 37.0
11/12/2018 10:00 4.12 515.6 412.92 0.00 34.6
11/12/2018 09:00 4.12 515.6 412.91 0.00 30.5
11/12/2018 08:00 4.10 504.0 412.95 0.00 27.0
11/12/2018 07:00 4.12 515.6 412.94 0.00 24.3
11/12/2018 06:00 4.14 527.5 412.96 0.00 24.8
11/12/2018 05:00 4.13 521.5 412.94 0.00 26.2
11/12/2018 04:00 4.13 521.5 412.96 0.00 27.6
11/12/2018 03:00 4.13 521.5 412.97 0.00 28.6
11/12/2018 02:00 4.14 527.5 412.98 0.00 27.7
11/12/2018 01:00 4.13 521.5 412.95 0.00 27.8
11/12/2018 00:00 4.15 533.4 412.95 0.00 27.8
11/11/2018 23:00 4.14 527.5 412.96 0.00 27.8
11/11/2018 22:00 4.14 527.5 413.00 0.00 28.3
11/11/2018 21:00 4.14 527.5 412.98 0.00 28.3
11/11/2018 20:00 4.15 533.4 413.00 0.00 29.9
11/11/2018 19:00 4.16 539.5 412.99 0.00 30.9
11/11/2018 18:00 4.16 539.5 413.01 0.00 34.2
11/11/2018 17:00 4.16 539.5 413.00 0.00 36.5
11/11/2018 16:00 4.15 533.4 413.01 0.00 38.1
11/11/2018 15:00 4.18 551.6 413.00 0.00 38.6
11/11/2018 14:00 4.17 545.5 413.03 0.00 37.0
11/11/2018 13:00 4.18 551.6 413.01 0.00 36.6
11/11/2018 12:00 4.17 545.5 413.01 0.00 36.0
11/11/2018 11:00 4.17 545.5 413.02 0.00 34.3
11/11/2018 10:00 4.16 539.5 413.00 0.00 33.2
11/11/2018 09:00 4.15 533.4 412.99 0.00 31.4
11/11/2018 08:00 4.16 539.5 413.01 0.00 30.2
11/11/2018 07:00 4.15 533.4 413.02 0.00 29.6
11/11/2018 06:00 4.15 533.4 413.00 0.00 30.6
11/11/2018 05:00 4.15 533.4 413.01 0.00 31.8
11/11/2018 04:00 4.15 533.4 413.00 0.00 32.0
11/11/2018 03:00 4.14 527.5 413.00 0.00 33.8
11/11/2018 02:00 4.16 539.5 412.97 0.00 33.9
11/11/2018 01:00 4.15 533.4 413.00 0.00 32.8
11/11/2018 00:00 4.16 539.5 412.96 0.00 33.9
11/10/2018 23:00 4.13 521.5 412.94 0.00 34.5
11/10/2018 22:00 4.15 533.4 412.97 0.00 34.7
11/10/2018 21:00 4.14 527.5 412.95 0.00 34.2
11/10/2018 20:00 4.14 527.5 412.93 0.00 34.4
11/10/2018 19:00 4.12 515.6 412.94 0.00 35.5
11/10/2018 18:00 4.14 527.5 412.91 0.00 36.8
11/10/2018 17:00 4.12 515.6 412.91 0.00 37.9
11/10/2018 16:00 4.11 509.8 412.91 0.00 40.5
11/10/2018 15:00 4.14 527.5 412.94 0.00 40.2
11/10/2018 14:00 4.11 509.8 412.90 0.00 42.9
11/10/2018 13:00 4.11 509.8 412.89 0.00 41.6
11/10/2018 12:00 4.11 509.8 412.87 0.01 42.1
11/10/2018 11:00 4.13 521.5 412.88 0.01 39.7
11/10/2018 10:00 4.12 515.6 412.88 0.01 38.0
11/10/2018 09:00 4.11 509.8 412.87 0.00 37.4
11/10/2018 08:00 4.11 509.8 412.89 0.00 36.5
11/10/2018 07:00 4.13 521.5 412.86 0.00 37.2
11/10/2018 06:00 4.12 515.6 412.88 0.01 37.2
11/10/2018 05:00 4.10 504.0 412.89 0.01 37.3
11/10/2018 04:00 4.12 515.6 412.85 0.00 40.3
11/10/2018 03:00 4.12 515.6 412.86 0.01 42.7
11/10/2018 02:00 4.12 515.6 412.85 0.07 42.5
11/10/2018 01:00 4.12 515.6 412.85 0.07 41.7
11/10/2018 00:00 4.07 486.7 412.85 0.11 41.1
11/09/2018 23:00 4.10 504.0 412.81 0.10 40.8
11/09/2018 22:00 4.10 504.0 412.82 0.12 40.6
11/09/2018 21:00 4.10 504.0 412.81 0.07 40.2
11/09/2018 20:00 4.12 515.6 412.83 0.00 41.8
11/09/2018 19:00 4.11 509.8 412.83 0.00 42.2
11/09/2018 18:00 4.12 515.6 412.84 0.00 42.4
11/09/2018 17:00 4.11 509.8 412.84 0.00 42.7
11/09/2018 16:00 4.09 498.2 412.85 0.00 43.0
11/09/2018 15:00 4.11 509.8 412.85 0.00 43.4
11/09/2018 14:00 4.11 509.8 412.87 0.00 44.2
11/09/2018 13:00 4.12 515.6 412.86 0.00 44.4
11/09/2018 12:00 4.14 527.5 412.88 0.00 43.8
11/09/2018 11:00 4.12 515.6 412.90 0.00 42.5
11/09/2018 10:00 4.14 527.5 412.90 0.00 35.4
11/09/2018 09:00 4.13 521.5 412.91 0.00 31.0
11/09/2018 08:00 4.13 521.5 412.94 0.00 29.6
11/09/2018 07:00 4.16 539.5 412.92 0.00 30.0
11/09/2018 06:00 4.14 527.5 412.94 0.00 30.3
11/09/2018 05:00 4.15 533.4 412.96 0.00 30.4
11/09/2018 04:00 4.15 533.4 412.95 0.00 31.3
11/09/2018 03:00 4.16 539.5 412.95 0.00 32.3
11/09/2018 02:00 4.14 527.5 412.98 0.00 33.5
11/09/2018 01:00 4.18 551.6 412.99 0.00 37.0
11/09/2018 00:00 4.16 539.5 412.99 0.00 33.5
11/08/2018 23:00 4.18 551.6 413.00 0.00 36.0
11/08/2018 22:00 4.18 551.6 413.00 0.00 36.4
11/08/2018 21:00 4.16 539.5 413.01 0.00 36.6
11/08/2018 20:00 4.19 557.8 413.02 0.00 38.3
11/08/2018 19:00 4.20 564.0 413.02 0.00 39.6
11/08/2018 18:00 4.19 557.8 413.04 0.00 43.0
11/08/2018 17:00 4.22 576.4 413.06 0.00 47.8
11/08/2018 16:00 4.17 545.5 413.07 0.00 50.4
11/08/2018 15:00 4.20 564.0 413.06 0.00 50.5
11/08/2018 14:00 4.18 551.6 413.09 0.00 50.5
11/08/2018 13:00 4.16 539.5 413.11 0.00 50.0
11/08/2018 12:00 4.14 527.5 413.10 0.00 50.0
11/08/2018 11:00 4.17 545.5 413.14 0.00 48.4
11/08/2018 10:00 4.18 551.6 413.09 0.00 45.8
11/08/2018 09:00 4.18 551.6 413.12 0.00 42.4
11/08/2018 08:00 4.17 545.5 413.11 0.00 37.0
11/08/2018 07:00 4.19 557.8 413.11 0.00 35.1
11/08/2018 06:00 4.19 557.8 413.11 0.00 36.8
11/08/2018 05:00 4.18 551.6 413.14 0.00 39.8
11/08/2018 04:00 4.19 557.8 413.14 0.00 43.4
11/08/2018 03:00 4.20 564.0 413.13 0.00 44.4
11/08/2018 02:00 4.20 564.0 413.12 0.00 38.7
11/08/2018 01:00 4.19 557.8 413.14 0.00 38.0
11/08/2018 00:00 4.20 564.0 413.15 0.00 39.6
11/07/2018 23:00 4.20 564.0 413.14 0.00 40.2
11/07/2018 22:00 4.23 582.7 413.16 0.00 40.6
11/07/2018 21:00 4.21 570.2 413.13 0.00 40.9
11/07/2018 20:00 4.18 551.6 413.16 0.00 42.3
11/07/2018 19:00 4.24 589.1 413.13 0.00 45.6
11/07/2018 18:00 4.22 576.4 413.14 0.00 51.9
11/07/2018 17:00 4.20 564.0 413.16 0.00 54.8
11/07/2018 16:00 4.21 570.2 413.14 0.00 57.3
11/07/2018 15:00 4.20 564.0 413.14 0.00 57.6
11/07/2018 14:00 4.23 582.7 413.12 0.00 55.9
11/07/2018 13:00 4.21 570.2 413.14 0.00 57.0
11/07/2018 12:00 4.21 570.2 413.12 0.00 56.8
11/07/2018 11:00 4.23 582.7 413.12 0.00 54.4
11/07/2018 10:00 4.18 551.6 413.12 0.01 52.4
11/07/2018 09:00 4.21 570.2 413.13 0.00 47.6
11/07/2018 08:00 4.19 557.8 413.14 0.00 41.3
11/07/2018 07:00 4.20 564.0 413.15 0.00 41.7
11/07/2018 06:00 4.21 570.2 413.12 0.01 44.4
11/07/2018 05:00 4.19 557.8 413.13 0.01 42.4
11/07/2018 04:00 4.19 557.8 413.14 0.01 42.6
11/07/2018 03:00 4.20 564.0 413.12 0.01 44.1
11/07/2018 02:00 4.16 539.5 413.14 0.02 45.4
11/07/2018 01:00 4.17 545.5 413.12 0.02 45.2
11/07/2018 00:00 4.20 564.0 413.11 0.02 46.9
11/06/2018 23:00 4.19 557.8 413.12 0.03 47.4
11/06/2018 22:00 4.21 570.2 413.12 0.04 47.2
11/06/2018 21:00 4.19 557.8 413.12 0.03 47.1
11/06/2018 20:00 4.18 551.6 413.13 0.04 46.8
11/06/2018 19:00 4.19 557.8 413.13 0.03 47.0
11/06/2018 18:00 4.19 557.8 413.13 0.04 47.0
11/06/2018 17:00 4.21 570.2 413.14 0.04 47.4
11/06/2018 16:00 4.21 570.2 413.13 0.03 47.4
11/06/2018 15:00 4.20 564.0 413.13 0.03 47.2
11/06/2018 14:00 4.22 576.4 413.13 0.00 47.2
11/06/2018 13:00 4.22 576.4 413.14 0.00 46.5
11/06/2018 12:00 4.26 601.9 413.16 0.00 46.0
11/06/2018 11:00 4.23 582.7 413.16 0.00 45.5
11/06/2018 10:00 4.25 595.4 413.20 0.00 44.0
11/06/2018 09:00 4.27 608.3 413.20 0.00 42.7
11/06/2018 08:00 4.27 608.3 413.20 0.00 42.0
11/06/2018 07:00 4.27 608.3 413.22 0.00 41.6
11/06/2018 06:00 4.28 614.8 413.23 0.00 41.1
11/06/2018 05:00 4.27 608.3 413.25 0.00 40.8
11/06/2018 04:00 4.29 621.4 413.27 0.01 39.7
11/06/2018 03:00 4.31 634.8 413.29 0.01 39.0
11/06/2018 02:00 4.33 648.5 413.31 0.01 38.6
11/06/2018 01:00 4.32 641.6 413.31 0.02 38.3
11/06/2018 00:00 4.35 662.4 413.32 0.01 37.7
11/05/2018 23:00 4.35 662.4 413.34 0.02 37.6
11/05/2018 22:00 4.35 662.4 413.34 0.00 37.8
11/05/2018 21:00 4.34 655.4 413.35 0.00 38.0
11/05/2018 20:00 4.39 690.8 413.37 0.00 38.3
11/05/2018 19:00 4.37 676.5 413.41 0.00 39.0
11/05/2018 18:00 4.39 690.8 413.42 0.00 38.9
11/05/2018 17:00 4.38 683.6 413.45 0.00 38.4
11/05/2018 16:00 4.42 712.4 413.48 0.00 38.4
11/05/2018 15:00 4.46 741.8 413.49 0.00 38.2
11/05/2018 14:00 4.46 741.8 413.49 0.00 39.1
11/05/2018 13:00 4.46 741.8 413.52 0.00 38.6
11/05/2018 12:00 4.46 741.8 413.56 0.00 37.7
11/05/2018 11:00 4.16 539.5 413.63 0.00 36.2
11/05/2018 10:00 4.20 564.0 413.61 0.00 34.9
11/05/2018 09:00 4.21 570.2 413.61 0.00 34.4
11/05/2018 08:00 4.20 564.0 413.65 0.00 33.1
11/05/2018 07:00 4.17 545.5 413.64 0.00 32.9
11/05/2018 06:00 4.22 576.4 413.65 0.00 31.6
11/05/2018 05:00 4.15 533.4 413.64 0.00 31.1
11/05/2018 04:00 4.18 551.6 413.67 0.00 31.5
11/05/2018 03:00 4.20 564.0 413.67 0.00 31.4
11/05/2018 02:00 4.17 545.5 413.67 0.00 31.4
11/05/2018 01:00 4.21 570.2 413.68 0.00 30.9
11/05/2018 00:00 4.19 557.8 413.65 0.00 31.6
11/04/2018 23:00 4.17 545.5 413.67 0.00 33.1
11/04/2018 22:00 4.20 564.0 413.66 0.00 33.5
11/04/2018 21:00 4.20 564.0 413.64 0.00 34.9
11/04/2018 20:00 4.19 557.8 413.66 0.00 35.7
11/04/2018 19:00 4.19 557.8 413.64 0.00 37.2
11/04/2018 18:00 4.17 545.5 413.66 0.00 40.3
11/04/2018 17:00 4.20 564.0 413.64 0.00 43.2
11/04/2018 16:00 4.20 564.0 413.66 0.00 44.9
11/04/2018 15:00 4.16 539.5 413.62 0.00 45.1
11/04/2018 14:00 4.17 545.5 413.63 0.00 44.8
11/04/2018 13:00 4.20 564.0 413.61 0.01 45.0
11/04/2018 12:00 4.18 551.6 413.60 0.00 43.6
11/04/2018 11:00 4.16 539.5 413.60 0.00 43.1
11/04/2018 10:00 4.17 545.5 413.60 0.00 41.9
11/04/2018 09:00 4.17 545.5 413.55 0.00 39.7
11/04/2018 08:00 4.18 551.6 413.54 0.00 35.6
11/04/2018 07:00 4.14 527.5 413.54 0.00 34.9
11/04/2018 06:00 4.18 551.6 413.52 0.00 38.1
11/04/2018 05:00 4.18 551.6 413.50 0.00 38.1
11/04/2018 04:00 4.14 527.5 413.50 0.00 36.9
11/04/2018 03:00 4.16 539.5 413.46 0.00 40.0
11/04/2018 02:00 4.14 527.5 413.44 0.00 41.6
11/04/2018 01:00 4.17 545.5 413.42 0.02 41.9
11/04/2018 00:00 4.15 533.4 413.39 0.00 42.6
11/03/2018 23:00 4.15 533.4 413.37 0.01 43.7
11/03/2018 22:00 4.14 527.5 413.32 0.01 44.7
11/03/2018 21:00 4.14 527.5 413.28 0.01 45.2
11/03/2018 20:00 4.15 533.4 413.26 0.01 45.5
11/03/2018 19:00 4.13 521.5 413.25 0.02 45.8
11/03/2018 18:00 4.14 527.5 413.21 0.01 46.5
11/03/2018 17:00 4.15 533.4 413.21 0.02 47.6
11/03/2018 16:00 4.12 515.6 413.17 0.03 51.5
11/03/2018 15:00 -- -- -- -- --